createdAt,value
2022-10-19T17:26:26.277Z,11.1
2022-10-19T17:28:56.294Z,11
2022-10-19T17:31:26.336Z,11
2022-10-19T17:36:26.377Z,10.9
2022-10-19T17:38:56.406Z,10.9
2022-10-19T17:41:26.432Z,10.9
2022-10-19T17:43:56.445Z,10.9
2022-10-19T17:48:56.497Z,10.8
2022-10-19T17:51:26.706Z,10.8
2022-10-19T17:53:56.536Z,10.8
2022-10-19T17:56:26.569Z,10.8
2022-10-19T18:01:26.621Z,10.6
2022-10-19T18:38:56.969Z,10.6
2022-10-19T18:41:27.012Z,10.1
2022-10-19T18:43:56.996Z,10.1
2022-10-19T18:46:27.023Z,10
2022-10-19T18:48:57.067Z,10
2022-10-19T18:53:57.102Z,9.89
2022-10-19T18:56:27.131Z,9.89
2022-10-19T19:01:27.227Z,9.8
2022-10-19T19:06:27.228Z,9.7
2022-10-19T19:08:57.244Z,9.7
2022-10-19T19:11:27.676Z,9.6
2022-10-19T19:13:57.307Z,9.7
2022-10-19T19:18:57.335Z,9.6
2022-10-19T19:23:57.383Z,9.5
2022-10-19T19:26:27.413Z,9.39
2022-10-19T19:28:57.433Z,9.5
2022-10-19T19:31:27.461Z,9.39
2022-10-19T19:33:57.479Z,9.3
2022-10-19T19:36:27.586Z,9.3
2022-10-19T19:38:57.535Z,9.2
2022-10-19T19:41:27.543Z,9.2
2022-10-19T19:43:57.569Z,9.2
2022-10-19T19:46:27.586Z,9.1
2022-10-19T19:48:57.642Z,9
2022-10-19T19:51:27.659Z,9
2022-10-19T19:53:57.673Z,9
2022-10-19T19:56:27.694Z,9
2022-10-19T20:06:27.778Z,8.8
2022-10-19T20:08:57.892Z,8.8
2022-10-19T20:11:27.847Z,8.89
2022-10-19T20:13:57.863Z,8.8
2022-10-19T20:16:29.297Z,8.8
2022-10-19T20:18:58.013Z,8.8
2022-10-19T20:21:27.924Z,8.8
2022-10-19T20:23:58.053Z,8.8
2022-10-19T20:26:27.972Z,8.8
2022-10-19T20:28:57.996Z,8.7
2022-10-19T20:33:58.054Z,8.6
2022-10-19T20:36:28.061Z,8.6
2022-10-19T20:38:58.091Z,8.5
2022-10-19T20:41:28.127Z,8.5
2022-10-19T20:43:58.129Z,8.5
2022-10-19T20:46:28.152Z,8.5
2022-10-19T20:48:58.188Z,8.39
2022-10-19T20:51:31.726Z,8.39
2022-10-19T20:53:58.240Z,8.39
2022-10-19T20:58:58.370Z,8.39
2022-10-19T21:01:28.343Z,8.39
2022-10-19T21:03:58.323Z,8.39
2022-10-19T21:08:58.477Z,8.39
2022-10-19T21:11:28.392Z,8.39
2022-10-19T21:13:58.433Z,8.39
2022-10-19T21:18:58.461Z,8.3
2022-10-19T21:21:28.480Z,8.39
2022-10-19T21:23:58.512Z,8.3
2022-10-19T21:26:28.541Z,8.3
2022-10-19T21:28:58.552Z,8.3
2022-10-19T21:31:28.575Z,8.3
2022-10-19T21:33:58.602Z,8.2
2022-10-19T21:36:28.627Z,8.2
2022-10-19T21:38:58.652Z,8.2
2022-10-19T21:41:28.707Z,8.3
2022-10-19T21:46:28.732Z,8.3
2022-10-19T21:51:28.769Z,8.1
2022-10-19T21:53:58.887Z,8
2022-10-19T21:58:58.844Z,8.1
2022-10-19T22:01:28.912Z,8.1
2022-10-19T22:06:28.944Z,8.1
2022-10-19T22:08:58.985Z,8.1
2022-10-19T22:11:28.961Z,8.1
2022-10-19T22:16:29.027Z,8
2022-10-19T22:18:59.050Z,8
2022-10-19T22:21:29.133Z,8.1
2022-10-19T22:28:59.146Z,7.9
2022-10-19T22:31:29.164Z,7.8
2022-10-19T22:33:59.176Z,7.8
2022-10-19T22:36:29.189Z,7.8
2022-10-19T22:38:59.212Z,7.8
2022-10-19T22:41:29.261Z,7.8
2022-10-19T22:43:59.268Z,7.7
2022-10-19T22:46:29.292Z,7.7
2022-10-19T22:48:59.353Z,7.7
2022-10-19T22:51:29.335Z,7.6
2022-10-19T22:53:59.356Z,7.6
2022-10-19T22:56:29.388Z,7.6
2022-10-19T22:58:59.427Z,7.6
2022-10-19T23:01:29.552Z,7.7
2022-10-19T23:03:59.470Z,7.6
2022-10-19T23:08:59.573Z,7.6
2022-10-19T23:11:29.527Z,7.6
2022-10-19T23:13:59.552Z,7.5
2022-10-19T23:16:29.608Z,7.5
2022-10-19T23:21:29.625Z,7.5
2022-10-19T23:23:59.665Z,7.4
2022-10-19T23:26:29.680Z,7.4
2022-10-19T23:28:59.701Z,7.3
2022-10-19T23:31:29.719Z,7.2
2022-10-19T23:36:29.765Z,7.2
2022-10-19T23:38:59.787Z,7.1
2022-10-19T23:41:29.823Z,7.1
2022-10-19T23:43:59.845Z,7.1
2022-10-19T23:48:59.881Z,7.1
2022-10-19T23:51:29.901Z,7.1
2022-10-19T23:53:59.934Z,7.1
2022-10-19T23:56:29.958Z,7
